Pleasant Plain, Iowa
Current Conditions -  °F | °C
As of 3:55 PM on Saturday 25 Oct 2014 (Local Time) from KFFL Reporting Station
Clear Clear  
Wind Chill: 72°   Ceiling: Unl
Heat Index: 72°   Visibility: NA
Dew Point: 37°   Wind: 8mph
Humidity: 29%   Direction: 340°NNW
Pressure: 30.05"   Gusts: NA
Location:  41.1253°N, 91.8296°W
Report Text: KFFL 252055Z AUTO 34007KT CLR 22/03 A3005 RMK AO2
Loading
Personal Weather Stations






























Interactive Weather Map
Tropical Storm Tracking
New forecast layout! Learn more

10-Day Weather Forecast

Advertisements
Track Severe Weather on mobile